Time;durP1;ratioP1;P1;durP2;ratioP2;P2;SDS_P1;SDS_P2;PMS_P1;PMS_P2;Temp;Humidity;BMP_temperature;BMP_pressure;BME280_temperature;BME280_humidity;BME280_pressure;Samples;Min_cycle;Max_cycle;Signal;HPM_P1;HPM_P2
2023/10/25 00:02:13;;;;;;;5.00;3.40;;;;;;;8.52;100.00;92931.50;5068866;28;20101;-60
2023/10/25 00:04:40;;;;;;;6.30;3.38;;;;;;;8.51;100.00;92927.25;5067801;28;20060;-61
2023/10/25 00:07:07;;;;;;;8.70;3.07;;;;;;;8.36;100.00;92926.75;5068679;28;20040;-60
2023/10/25 00:09:34;;;;;;;4.90;2.97;;;;;;;8.30;100.00;92914.81;5065008;28;20485;-60
2023/10/25 00:12:01;;;;;;;43.38;25.58;;;;;;;8.28;100.00;92914.47;5049322;28;20036;-61
2023/10/25 00:14:28;;;;;;;47.10;24.70;;;;;;;8.24;100.00;92911.03;5050151;28;20053;-61
2023/10/25 00:16:54;;;;;;;7.30;4.40;;;;;;;8.24;100.00;92918.47;5068277;28;20400;-61
2023/10/25 00:19:21;;;;;;;8.90;4.97;;;;;;;8.17;100.00;92920.16;5068429;28;20080;-61
2023/10/25 00:21:48;;;;;;;8.32;4.95;;;;;;;8.17;100.00;92925.63;5067611;28;20051;-61
2023/10/25 00:24:15;;;;;;;6.38;3.92;;;;;;;8.06;100.00;92921.59;5068358;28;20044;-60
2023/10/25 00:26:41;;;;;;;6.20;3.85;;;;;;;7.92;100.00;92926.16;5067396;28;20053;-60
2023/10/25 00:29:08;;;;;;;5.93;3.40;;;;;;;7.90;100.00;92922.31;5067927;28;20047;-62
2023/10/25 00:31:35;;;;;;;5.53;3.70;;;;;;;7.77;100.00;92920.25;5067662;28;20056;-60
2023/10/25 00:34:03;;;;;;;8.70;4.90;;;;;;;7.74;100.00;92923.03;5067838;28;20040;-62
2023/10/25 00:36:30;;;;;;;6.80;3.80;;;;;;;7.73;100.00;92932.44;5067701;28;20051;-60
2023/10/25 00:38:56;;;;;;;6.00;3.15;;;;;;;7.60;100.00;92933.06;5067937;28;20047;-60
2023/10/25 00:41:23;;;;;;;7.30;3.92;;;;;;;7.65;100.00;92929.06;5067816;28;20048;-60
2023/10/25 00:43:50;;;;;;;4.67;2.80;;;;;;;7.71;100.00;92937.56;5054344;28;20047;-61
2023/10/25 00:46:22;;;;;;;5.00;3.05;;;;;;;7.69;100.00;92926.28;5067889;28;20083;-60
2023/10/25 00:48:52;;;;;;;5.13;2.88;;;;;;;7.67;100.00;92918.50;5067464;28;20050;-60
2023/10/25 00:51:22;;;;;;;4.63;2.80;;;;;;;7.70;100.00;92917.66;5050217;28;20158;-60
2023/10/25 00:53:53;;;;;;;4.93;3.10;;;;;;;7.73;100.00;92932.44;5066633;28;20044;-60
2023/10/25 00:56:28;;;;;;;4.80;3.10;;;;;;;7.72;100.00;92939.06;5067935;28;20489;-60
2023/10/25 00:58:56;;;;;;;6.32;2.90;;;;;;;7.74;100.00;92931.22;5066710;28;20590;-60
2023/10/25 01:01:27;;;;;;;4.85;3.30;;;;;;;7.77;100.00;92931.16;5067783;28;20040;-60
2023/10/25 01:03:54;;;;;;;4.80;2.88;;;;;;;7.82;100.00;92931.84;5066565;28;21605;-60
2023/10/25 01:06:22;;;;;;;4.82;2.83;;;;;;;7.94;100.00;92926.50;5067420;28;20049;-59
2023/10/25 01:08:49;;;;;;;6.03;3.03;;;;;;;7.98;100.00;92940.09;5066945;28;20044;-59
2023/10/25 01:11:16;;;;;;;5.05;3.30;;;;;;;8.02;100.00;92934.56;5067256;28;20078;-60
2023/10/25 01:13:42;;;;;;;5.75;3.50;;;;;;;8.08;100.00;92922.72;5066790;28;20041;-61
2023/10/25 01:16:09;;;;;;;6.45;3.05;;;;;;;7.97;100.00;92922.19;5049833;28;20050;-59
2023/10/25 01:18:36;;;;;;;5.50;3.45;;;;;;;8.01;100.00;92920.16;5066961;28;20070;-60
2023/10/25 01:21:04;;;;;;;5.00;3.30;;;;;;;8.12;100.00;92920.66;5067865;28;20535;-61
2023/10/25 01:23:31;;;;;;;5.93;3.50;;;;;;;8.09;100.00;92920.75;5053089;28;20049;-60
2023/10/25 01:25:57;;;;;;;5.90;3.90;;;;;;;8.04;100.00;92918.53;5070214;28;20121;-60
2023/10/25 01:28:24;;;;;;;6.03;3.88;;;;;;;8.07;100.00;92910.25;5071268;28;20105;-60
2023/10/25 01:30:51;;;;;;;6.78;3.67;;;;;;;8.04;100.00;92915.78;5071336;28;20055;-61
2023/10/25 01:33:18;;;;;;;10.30;3.83;;;;;;;8.13;100.00;92911.28;5071403;28;20075;-60
2023/10/25 01:35:45;;;;;;;6.78;3.95;;;;;;;8.20;100.00;92900.19;5070688;28;20150;-60
2023/10/25 01:38:12;;;;;;;7.50;4.32;;;;;;;8.28;100.00;92891.81;5070760;28;20062;-60
2023/10/25 01:40:39;;;;;;;8.05;4.47;;;;;;;8.39;100.00;92895.06;5067714;28;20044;-60
2023/10/25 01:43:05;;;;;;;7.80;4.72;;;;;;;8.45;100.00;92892.63;5071275;28;20052;-60
2023/10/25 01:45:32;;;;;;;7.00;4.33;;;;;;;8.43;100.00;92900.47;5069885;28;20386;-62
2023/10/25 01:47:59;;;;;;;7.80;4.43;;;;;;;8.46;100.00;92900.41;5052918;28;20051;-60
2023/10/25 01:50:26;;;;;;;8.63;4.57;;;;;;;8.46;100.00;92900.41;5069674;28;20125;-59
2023/10/25 01:52:53;;;;;;;7.03;4.20;;;;;;;8.52;100.00;92901.44;5070604;28;20044;-60
2023/10/25 01:55:19;;;;;;;7.55;4.53;;;;;;;8.55;100.00;92902.53;5070414;28;20048;-60
2023/10/25 01:57:46;;;;;;;9.20;5.00;;;;;;;8.56;100.00;92899.38;5069937;28;20040;-60
2023/10/25 02:00:13;;;;;;;9.65;5.22;;;;;;;8.62;100.00;92887.94;5070235;28;20044;-61
2023/10/25 02:02:40;;;;;;;9.80;5.00;;;;;;;8.68;100.00;92897.16;5069837;28;20400;-60
2023/10/25 02:05:07;;;;;;;10.23;5.72;;;;;;;8.67;100.00;92890.16;5069786;28;20485;-63
2023/10/25 02:07:34;;;;;;;10.48;5.30;;;;;;;8.66;100.00;92886.66;5069720;28;20129;-60
2023/10/25 02:10:02;;;;;;;10.83;5.80;;;;;;;8.54;100.00;92877.16;5052533;28;20565;-60
2023/10/25 02:12:29;;;;;;;10.10;5.93;;;;;;;8.53;100.00;92883.06;5069283;28;20638;-60
2023/10/25 02:14:56;;;;;;;10.48;6.00;;;;;;;8.53;100.00;92870.16;5070086;28;20438;-61
2023/10/25 02:17:22;;;;;;;10.57;6.05;;;;;;;8.54;100.00;92876.41;5069084;28;20044;-60
2023/10/25 02:19:49;;;;;;;11.38;6.53;;;;;;;8.60;100.00;92877.41;5069391;28;20041;-60
2023/10/25 02:22:16;;;;;;;10.93;6.27;;;;;;;8.55;100.00;92869.72;5051593;28;20049;-60
2023/10/25 02:24:43;;;;;;;10.75;5.97;;;;;;;8.60;100.00;92871.94;5069265;28;20045;-60
2023/10/25 02:27:10;;;;;;;11.90;6.68;;;;;;;8.64;100.00;92869.13;5069128;28;20071;-63
2023/10/25 02:29:36;;;;;;;10.40;6.53;;;;;;;8.67;100.00;92869.06;5069239;28;20097;-60
2023/10/25 02:32:07;;;;;;;11.95;6.68;;;;;;;8.66;100.00;92869.47;5069492;28;20060;-60
2023/10/25 02:34:36;;;;;;;11.13;6.33;;;;;;;8.65;100.00;92862.44;5069139;28;20443;-61
2023/10/25 02:37:03;;;;;;;10.60;6.15;;;;;;;8.55;100.00;92858.78;5069753;28;20412;-60
2023/10/25 02:39:31;;;;;;;10.88;6.70;;;;;;;8.54;100.00;92860.75;5069082;28;20075;-60
2023/10/25 02:41:58;;;;;;;10.80;6.65;;;;;;;8.48;100.00;92857.00;5069150;28;20039;-60
2023/10/25 02:44:25;;;;;;;11.00;6.28;;;;;;;8.46;100.00;92855.91;5068937;28;20077;-60
2023/10/25 02:46:51;;;;;;;9.60;5.70;;;;;;;8.37;100.00;92846.31;5069321;28;20044;-60
2023/10/25 02:49:18;;;;;;;9.30;5.53;;;;;;;8.38;100.00;92849.81;5069408;28;20041;-60
2023/10/25 02:51:45;;;;;;;9.40;5.68;;;;;;;8.29;100.00;92853.13;5051018;28;20056;-60
2023/10/25 02:54:12;;;;;;;8.75;5.53;;;;;;;8.33;100.00;92844.84;5069263;28;20058;-61
2023/10/25 02:56:38;;;;;;;10.52;6.03;;;;;;;8.35;100.00;92843.22;5050664;28;20382;-59
2023/10/25 02:59:05;;;;;;;8.83;5.30;;;;;;;8.31;100.00;92839.03;5069096;28;20390;-60
2023/10/25 03:01:32;;;;;;;8.57;5.07;;;;;;;8.37;100.00;92842.78;5067942;28;20045;-59
2023/10/25 03:03:59;;;;;;;9.15;5.30;;;;;;;8.43;100.00;92843.88;5069090;28;20048;-60
2023/10/25 03:06:26;;;;;;;41.65;24.02;;;;;;;8.47;100.00;92839.06;5068080;28;20036;-61
2023/10/25 03:08:53;;;;;;;11.00;6.53;;;;;;;8.43;100.00;92841.13;5068996;28;20040;-60
2023/10/25 03:11:19;;;;;;;9.03;5.47;;;;;;;8.40;100.00;92844.66;5050740;28;20040;-60
2023/10/25 03:13:46;;;;;;;8.82;5.43;;;;;;;8.46;100.00;92839.50;5068488;28;20478;-60
2023/10/25 03:16:13;;;;;;;10.48;6.40;;;;;;;8.49;100.00;92839.41;5068242;28;20090;-60
2023/10/25 03:18:40;;;;;;;9.38;5.70;;;;;;;8.46;100.00;92834.03;5068463;28;20051;-61
2023/10/25 03:21:07;;;;;;;8.63;5.60;;;;;;;8.43;100.00;92837.59;5068635;28;20036;-61
2023/10/25 03:23:34;;;;;;;9.33;5.80;;;;;;;8.37;100.00;92832.63;5067928;28;20044;-61
2023/10/25 03:26:07;;;;;;;9.00;5.40;;;;;;;8.41;100.00;92838.06;5068564;28;20037;-60
2023/10/25 03:28:34;;;;;;;10.30;5.95;;;;;;;8.31;100.00;92826.16;5067855;28;20040;-61
2023/10/25 03:31:07;;;;;;;9.73;5.63;;;;;;;8.29;100.00;92828.53;5068540;28;20142;-60
2023/10/25 03:33:34;;;;;;;9.23;5.78;;;;;;;8.31;100.00;92819.88;5067664;28;20058;-60
2023/10/25 03:36:02;;;;;;;9.33;5.70;;;;;;;8.34;100.00;92822.53;5066559;28;20052;-61
2023/10/25 03:38:28;;;;;;;9.55;5.38;;;;;;;8.37;100.00;92823.66;5068333;28;20434;-60
2023/10/25 03:41:07;;;;;;;10.77;6.13;;;;;;;8.37;100.00;92809.97;5067764;28;20047;-59
2023/10/25 03:43:35;;;;;;;9.88;5.68;;;;;;;8.42;100.00;92814.97;5067821;28;20052;-60
2023/10/25 03:46:06;;;;;;;9.23;5.50;;;;;;;8.39;100.00;92811.09;5068618;28;20028;-61
2023/10/25 03:48:34;;;;;;;8.90;5.37;;;;;;;8.34;100.00;92803.41;5068112;28;20056;-60
2023/10/25 03:51:05;;;;;;;8.73;5.57;;;;;;;8.33;100.00;92812.03;5068549;28;20468;-60
2023/10/25 03:53:36;;;;;;;10.98;5.75;;;;;;;8.23;100.00;92797.44;5067777;28;20040;-60
2023/10/25 03:56:03;;;;;;;22.17;12.40;;;;;;;8.23;100.00;92807.59;5068657;28;20150;-60
2023/10/25 03:58:31;;;;;;;11.20;7.00;;;;;;;8.25;100.00;92800.53;5068241;28;20062;-61
2023/10/25 04:01:02;;;;;;;12.60;6.40;;;;;;;8.24;100.00;92798.97;5068172;28;20693;-60
2023/10/25 04:03:31;;;;;;;11.73;6.57;;;;;;;8.22;100.00;92809.56;5068325;28;20041;-61
2023/10/25 04:05:58;;;;;;;12.50;6.90;;;;;;;8.20;100.00;92801.78;5067906;28;20036;-60
2023/10/25 04:08:25;;;;;;;10.88;6.40;;;;;;;8.20;100.00;92806.50;5067957;28;20404;-60
2023/10/25 04:10:53;;;;;;;12.38;7.55;;;;;;;8.11;100.00;92800.84;5068264;28;20040;-60
2023/10/25 04:13:21;;;;;;;15.33;7.73;;;;;;;8.09;100.00;92795.84;5050725;28;20140;-59
2023/10/25 04:16:02;;;;;;;14.00;7.47;;;;;;;8.15;100.00;92796.09;5067866;28;20055;-61
2023/10/25 04:18:30;;;;;;;14.65;7.70;;;;;;;8.18;100.00;92789.75;5067742;28;20160;-61
2023/10/25 04:20:58;;;;;;;15.85;8.18;;;;;;;8.11;100.00;92789.91;5068120;28;20045;-61
2023/10/25 04:23:26;;;;;;;15.27;8.05;;;;;;;8.12;100.00;92784.03;5054770;28;20113;-59
2023/10/25 04:26:04;;;;;;;12.30;7.03;;;;;;;8.09;100.00;92782.16;5068472;28;20044;-60
2023/10/25 04:28:31;;;;;;;12.50;7.20;;;;;;;8.08;100.00;92783.34;5067918;28;20394;-60
2023/10/25 04:30:58;;;;;;;14.02;8.27;;;;;;;7.94;100.00;92773.53;5068065;28;20067;-60
2023/10/25 04:33:26;;;;;;;13.80;8.60;;;;;;;8.01;100.00;92772.59;5067720;28;20055;-60
2023/10/25 04:35:53;;;;;;;13.93;8.65;;;;;;;8.10;100.00;92777.47;5066172;28;20744;-60
2023/10/25 04:38:20;;;;;;;12.83;7.53;;;;;;;8.06;100.00;92772.09;5067976;28;20044;-60
2023/10/25 04:40:46;;;;;;;14.07;8.02;;;;;;;8.04;100.00;92773.72;5067404;28;20048;-60
2023/10/25 04:43:13;;;;;;;12.85;7.65;;;;;;;8.13;100.00;92769.19;5067880;28;20391;-62
2023/10/25 04:45:40;;;;;;;12.90;7.15;;;;;;;8.12;100.00;92756.69;5067018;28;20508;-60
2023/10/25 04:48:06;;;;;;;11.32;6.57;;;;;;;8.12;100.00;92759.44;5067765;28;20045;-61
2023/10/25 04:50:36;;;;;;;14.47;7.27;;;;;;;8.11;100.00;92746.19;5066900;28;20061;-61
2023/10/25 04:53:04;;;;;;;14.45;8.20;;;;;;;7.99;100.00;92747.69;5067998;28;20049;-60
2023/10/25 04:55:34;;;;;;;13.13;6.63;;;;;;;7.96;100.00;92743.06;5067417;28;20040;-61
2023/10/25 04:58:00;;;;;;;12.02;6.75;;;;;;;8.03;100.00;92747.56;5067610;28;20393;-61
2023/10/25 05:00:28;;;;;;;11.15;6.53;;;;;;;8.05;100.00;92736.97;5067074;28;20530;-60
2023/10/25 05:02:55;;;;;;;11.80;6.73;;;;;;;8.07;100.00;92732.66;5067430;28;20045;-60
2023/10/25 05:05:22;;;;;;;11.20;6.40;;;;;;;7.99;100.00;92723.84;5067095;28;20404;-60
2023/10/25 05:07:50;;;;;;;13.75;7.95;;;;;;;8.05;100.00;92724.09;5066687;28;20040;-61
2023/10/25 05:10:17;;;;;;;11.20;6.40;;;;;;;8.10;100.00;92720.84;5067150;28;20048;-60
2023/10/25 05:12:46;;;;;;;11.65;6.32;;;;;;;8.08;100.00;92717.78;5066907;28;20052;-60
2023/10/25 05:15:16;;;;;;;10.30;6.27;;;;;;;8.09;100.00;92718.53;5067725;28;20052;-61
2023/10/25 05:17:45;;;;;;;10.93;6.43;;;;;;;8.08;100.00;92717.78;5067029;28;20037;-62
2023/10/25 05:20:13;;;;;;;11.05;6.28;;;;;;;7.98;100.00;92714.09;5067853;28;20105;-60
2023/10/25 05:22:41;;;;;;;11.18;6.32;;;;;;;8.02;100.00;92721.47;5066757;28;20055;-61
2023/10/25 05:25:10;;;;;;;11.93;6.00;;;;;;;8.11;100.00;92724.34;5049512;28;20408;-62
2023/10/25 05:27:37;;;;;;;11.70;6.17;;;;;;;8.17;100.00;92725.38;5066662;28;20476;-59
2023/10/25 05:30:07;;;;;;;12.68;7.20;;;;;;;8.16;100.00;92729.28;5067560;28;20044;-61
2023/10/25 05:32:36;;;;;;;11.35;6.47;;;;;;;8.20;100.00;92732.72;5066629;28;20052;-60
2023/10/25 05:35:05;;;;;;;11.40;6.35;;;;;;;8.17;100.00;92726.13;5049304;28;20036;-60
2023/10/25 05:37:32;;;;;;;11.32;6.50;;;;;;;8.32;100.00;92729.25;5066598;28;20050;-61
2023/10/25 05:39:59;;;;;;;13.13;6.60;;;;;;;8.07;100.00;92727.19;5067237;28;20055;-62
2023/10/25 05:42:29;;;;;;;12.45;7.00;;;;;;;8.11;100.00;92722.41;5066618;28;20045;-60
2023/10/25 05:44:56;;;;;;;11.20;6.90;;;;;;;8.15;100.00;92725.81;5066169;28;20469;-61
2023/10/25 05:47:25;;;;;;;11.02;6.43;;;;;;;8.15;100.00;92727.78;5067245;28;20040;-62
2023/10/25 05:49:53;;;;;;;12.82;6.85;;;;;;;8.15;100.00;92725.03;5066192;28;20540;-60
2023/10/25 05:52:20;;;;;;;12.20;6.80;;;;;;;8.17;100.00;92725.38;5067055;28;20409;-60
2023/10/25 05:54:47;;;;;;;12.80;6.80;;;;;;;8.24;100.00;92721.69;5066764;28;20051;-60
2023/10/25 05:57:15;;;;;;;14.70;6.53;;;;;;;8.30;100.00;92719.97;5067064;28;20091;-60
2023/10/25 05:59:42;;;;;;;12.30;7.20;;;;;;;8.37;100.00;92706.09;5048540;28;20052;-60
2023/10/25 06:02:22;;;;;;;12.45;6.85;;;;;;;8.46;100.00;92708.25;5067050;28;20501;-59
2023/10/25 06:04:50;;;;;;;15.90;7.53;;;;;;;8.51;100.00;92707.72;5063500;28;20857;-62
2023/10/25 06:07:18;;;;;;;12.55;7.50;;;;;;;8.56;100.00;92713.44;5067585;28;20040;-62
2023/10/25 06:09:45;;;;;;;13.38;8.05;;;;;;;8.59;100.00;92701.63;5070039;28;20049;-62
2023/10/25 06:12:12;;;;;;;15.90;8.38;;;;;;;8.60;100.00;92700.44;5070596;28;20048;-60
2023/10/25 06:14:39;;;;;;;13.75;7.78;;;;;;;8.65;100.00;92706.56;5051942;28;20382;-62
2023/10/25 06:17:05;;;;;;;13.30;7.67;;;;;;;8.70;100.00;92689.63;5070483;28;20056;-61
2023/10/25 06:19:32;;;;;;;12.55;6.90;;;;;;;8.74;100.00;92693.03;5069711;28;20051;-61
2023/10/25 06:21:59;;;;;;;11.77;7.05;;;;;;;8.64;100.00;92703.06;5070181;28;20080;-60
2023/10/25 06:24:26;;;;;;;15.48;7.03;;;;;;;8.66;100.00;92689.72;5069643;28;20163;-60
2023/10/25 06:26:52;;;;;;;13.27;7.38;;;;;;;8.63;100.00;92695.28;5070714;28;20040;-61
2023/10/25 06:29:19;;;;;;;14.80;8.23;;;;;;;8.62;100.00;92694.53;5069933;28;20044;-64
2023/10/25 06:31:51;;;;;;;13.55;7.63;;;;;;;8.59;100.00;92689.91;5069617;28;20040;-61
2023/10/25 06:34:19;;;;;;;14.05;7.90;;;;;;;8.63;100.00;92692.56;5069929;28;20048;-63
2023/10/25 06:36:47;;;;;;;13.38;7.55;;;;;;;8.71;100.00;92688.41;5049090;28;20094;-63
2023/10/25 06:39:14;;;;;;;13.73;7.65;;;;;;;8.68;100.00;92683.84;5049032;28;20063;-64
2023/10/25 06:41:42;;;;;;;10.77;6.50;;;;;;;8.66;100.00;92686.22;5048455;28;20045;-62
2023/10/25 06:44:09;;;;;;;14.40;8.02;;;;;;;8.86;100.00;92680.59;5049824;28;20053;-60
2023/10/25 06:46:36;;;;;;;15.00;8.10;;;;;;;8.88;100.00;92678.94;5047994;28;20057;-60
2023/10/25 06:49:03;;;;;;;12.50;6.97;;;;;;;8.89;100.00;92688.69;5056555;28;20053;-61
2023/10/25 06:51:30;;;;;;;11.38;6.55;;;;;;;8.87;100.00;92682.88;5048379;28;20567;-61
2023/10/25 06:53:57;;;;;;;12.63;7.43;;;;;;;8.94;100.00;92673.72;5056705;28;20045;-61
2023/10/25 06:56:25;;;;;;;15.18;8.88;;;;;;;9.00;100.00;92683.69;5048420;28;20057;-62
2023/10/25 06:58:52;;;;;;;13.55;8.07;;;;;;;9.09;100.00;92669.34;5054592;28;20779;-60
2023/10/25 07:01:23;;;;;;;14.25;7.80;;;;;;;9.07;100.00;92663.53;5048467;28;20049;-60
2023/10/25 07:03:51;;;;;;;12.85;7.45;;;;;;;9.16;100.00;92657.44;5044305;28;20075;-60
2023/10/25 07:06:18;;;;;;;12.03;7.47;;;;;;;9.20;100.00;92656.09;5031811;28;20048;-60
2023/10/25 07:08:48;;;;;;;13.75;7.80;;;;;;;9.16;100.00;92654.69;5048252;28;20505;-60
2023/10/25 07:11:16;;;;;;;11.70;7.03;;;;;;;9.17;100.00;92659.72;5030323;28;20490;-61
2023/10/25 07:13:43;;;;;;;12.52;7.32;;;;;;;9.24;100.00;92647.03;5059618;28;20037;-62
2023/10/25 07:16:09;;;;;;;13.55;6.90;;;;;;;9.37;100.00;92650.53;5060769;28;20413;-62
2023/10/25 07:18:36;;;;;;;11.53;6.70;;;;;;;9.36;100.00;92649.00;5057990;28;20054;-61
2023/10/25 07:21:05;;;;;;;13.05;6.18;;;;;;;9.39;100.00;92651.59;5057450;28;20041;-62
2023/10/25 07:23:32;;;;;;;13.00;7.10;;;;;;;9.35;100.00;92642.75;5057768;28;20524;-62
2023/10/25 07:25:59;;;;;;;13.43;7.65;;;;;;;9.34;100.00;92645.94;5061001;28;20060;-61
2023/10/25 07:28:26;;;;;;;12.48;7.57;;;;;;;9.37;100.00;92643.06;5052257;28;20047;-62
2023/10/25 07:30:53;;;;;;;13.67;7.03;;;;;;;9.34;100.00;92640.47;5049325;28;20049;-62
2023/10/25 07:33:21;;;;;;;9.45;5.80;;;;;;;9.31;100.00;92622.91;5057414;28;20045;-61
2023/10/25 07:35:48;;;;;;;12.45;7.20;;;;;;;9.31;100.00;92622.16;5059934;28;20040;-61
2023/10/25 07:38:15;;;;;;;11.15;6.93;;;;;;;9.42;100.00;92630.03;5060911;28;20469;-61
2023/10/25 07:40:42;;;;;;;12.30;7.30;;;;;;;9.47;100.00;92633.00;5057935;28;20040;-61
2023/10/25 07:43:09;;;;;;;10.30;5.67;;;;;;;9.35;100.00;92625.56;5039492;28;20048;-62
2023/10/25 07:45:36;;;;;;;10.52;6.40;;;;;;;9.38;100.00;92624.69;5058643;28;20053;-62
2023/10/25 07:48:03;;;;;;;10.15;5.57;;;;;;;9.43;100.00;92631.56;5060663;28;20044;-61
2023/10/25 07:50:31;;;;;;;9.48;5.90;;;;;;;9.32;100.00;92615.50;5059127;28;20515;-62
2023/10/25 07:52:58;;;;;;;9.57;5.78;;;;;;;9.38;100.00;92622.72;5057166;28;20098;-61
2023/10/25 07:55:24;;;;;;;9.60;6.00;;;;;;;9.49;100.00;92619.63;5056967;28;20072;-61
2023/10/25 07:57:54;;;;;;;9.27;5.75;;;;;;;9.38;100.00;92630.16;5067677;28;20632;-61
2023/10/25 08:00:24;;;;;;;11.23;5.70;;;;;;;9.47;100.00;92619.28;5068471;28;20420;-61
2023/10/25 08:02:50;;;;;;;9.57;6.25;;;;;;;9.66;100.00;92616.75;5047752;28;21921;-61
2023/10/25 08:05:17;;;;;;;10.10;5.85;;;;;;;10.66;100.00;92605.09;5056393;28;20159;-61
2023/10/25 08:07:47;;;;;;;7.40;5.10;;;;;;;10.89;100.00;92592.13;5058858;28;20044;-62
2023/10/25 08:10:14;;;;;;;10.30;5.28;;;;;;;12.55;100.00;92587.69;5060090;28;20075;-63
2023/10/25 08:12:41;;;;;;;9.20;5.28;;;;;;;12.95;100.00;92585.94;5057459;28;20045;-63
2023/10/25 08:15:08;;;;;;;8.30;4.70;;;;;;;12.44;100.00;92576.41;5056660;28;20044;-62
2023/10/25 08:17:35;;;;;;;7.70;4.80;;;;;;;11.55;100.00;92576.19;5057420;28;20475;-61
2023/10/25 08:20:04;;;;;;;6.87;4.30;;;;;;;11.74;100.00;92579.72;5054987;28;20048;-61
2023/10/25 08:22:33;;;;;;;6.40;3.85;;;;;;;11.73;100.00;92580.16;5053864;28;20063;-62
2023/10/25 08:25:00;;;;;;;7.72;4.00;;;;;;;11.49;100.00;92580.75;5039026;28;20102;-61
2023/10/25 08:27:27;;;;;;;6.18;3.78;;;;;;;11.30;100.00;92576.41;5055903;28;20070;-61
2023/10/25 08:29:56;;;;;;;6.70;4.10;;;;;;;11.29;100.00;92574.88;5045545;28;20381;-62
2023/10/25 08:32:23;;;;;;;6.43;3.87;;;;;;;11.31;100.00;92569.72;5055994;28;20044;-61
2023/10/25 08:34:50;;;;;;;6.88;4.20;;;;;;;11.60;100.00;92577.56;5054616;28;20059;-61
2023/10/25 08:37:16;;;;;;;6.10;3.80;;;;;;;11.65;100.00;92573.44;5055922;28;20648;-61
2023/10/25 08:39:43;;;;;;;5.60;3.67;;;;;;;12.04;100.00;92576.59;5057527;28;20037;-63
2023/10/25 08:42:14;;;;;;;6.07;3.53;;;;;;;12.57;100.00;92573.50;5059179;28;20040;-61
2023/10/25 08:44:42;;;;;;;6.10;3.90;;;;;;;11.93;100.00;92580.56;5056512;28;20047;-62
2023/10/25 08:47:11;;;;;;;5.20;3.60;;;;;;;12.14;100.00;92567.13;5055679;28;20083;-61
2023/10/25 08:49:38;;;;;;;7.03;4.32;;;;;;;12.04;100.00;92562.84;5056685;28;20047;-62
2023/10/25 08:52:06;;;;;;;5.82;3.97;;;;;;;15.61;100.00;92558.75;5053506;28;20481;-63
2023/10/25 08:54:37;;;;;;;5.07;3.45;;;;;;;16.73;100.00;92556.63;5056207;28;20111;-62
2023/10/25 08:57:04;;;;;;;4.70;3.10;;;;;;;17.89;100.00;92557.31;5059331;28;20135;-62
2023/10/25 08:59:46;;;;;;;5.30;3.25;;;;;;;16.73;100.00;92545.53;5057100;28;20033;-63
2023/10/25 09:02:14;;;;;;;5.82;3.90;;;;;;;13.74;100.00;92555.47;5055685;28;20448;-62
2023/10/25 09:04:56;;;;;;;5.65;3.85;;;;;;;13.75;100.00;92557.00;5056730;28;20044;-62
2023/10/25 09:07:30;;;;;;;5.80;3.90;;;;;;;16.11;100.00;92540.06;5041671;28;20044;-62
2023/10/25 09:09:57;;;;;;;5.77;3.60;;;;;;;17.37;100.00;92536.03;5045520;28;20643;-62
2023/10/25 09:12:25;;;;;;;5.35;3.83;;;;;;;15.88;100.00;92538.28;5059065;28;20045;-62
2023/10/25 09:14:52;;;;;;;5.50;3.90;;;;;;;17.35;100.00;92544.06;5054728;28;20400;-62
2023/10/25 09:17:19;;;;;;;5.88;4.10;;;;;;;16.86;100.00;92557.03;5037779;28;20110;-62
2023/10/25 09:19:50;;;;;;;6.47;4.20;;;;;;;16.11;100.00;92545.59;5057744;28;20089;-62
2023/10/25 09:22:28;;;;;;;5.83;4.20;;;;;;;14.95;100.00;92547.72;5056558;28;20075;-62
2023/10/25 09:24:58;;;;;;;6.55;4.93;;;;;;;15.17;100.00;92544.56;5046542;28;20059;-62
2023/10/25 09:27:25;;;;;;;6.28;4.55;;;;;;;15.11;100.00;92526.34;5047703;28;20045;-63
2023/10/25 09:29:53;;;;;;;5.55;4.20;;;;;;;14.34;100.00;92533.56;5054548;28;21588;-63
2023/10/25 09:32:21;;;;;;;5.88;4.18;;;;;;;14.61;100.00;92534.56;5055125;28;20051;-63
2023/10/25 09:34:49;;;;;;;6.17;4.10;;;;;;;16.94;100.00;92522.09;5055265;28;20075;-63
2023/10/25 09:37:16;;;;;;;5.65;3.80;;;;;;;15.80;100.00;92531.66;5055902;28;20138;-62
2023/10/25 09:39:42;;;;;;;5.65;3.72;;;;;;;16.35;100.00;92528.03;5057565;28;20424;-62
2023/10/25 09:42:11;;;;;;;6.32;4.10;;;;;;;15.55;100.00;92534.56;5053421;28;20072;-62
2023/10/25 09:44:45;;;;;;;5.22;4.05;;;;;;;14.03;100.00;92540.25;5058995;28;20041;-62
2023/10/25 09:47:15;;;;;;;6.07;4.40;;;;;;;13.65;100.00;92539.00;5059446;28;20485;-62
2023/10/25 09:49:44;;;;;;;6.00;4.43;;;;;;;13.89;100.00;92538.22;5043354;28;20047;-62
2023/10/25 09:52:24;;;;;;;6.63;4.18;;;;;;;14.02;100.00;92540.72;5062719;28;20036;-62
2023/10/25 09:54:56;;;;;;;5.28;3.85;;;;;;;13.44;100.00;92534.50;5058750;28;21466;-62
2023/10/25 09:57:28;;;;;;;6.57;4.00;;;;;;;12.95;100.00;92525.38;5059321;28;20052;-62
2023/10/25 09:59:56;;;;;;;7.90;5.03;;;;;;;12.56;100.00;92522.44;5069967;28;20892;-62
2023/10/25 10:02:47;;;;;;;7.05;4.30;;;;;;;12.50;100.00;92524.28;5070840;28;20393;-61
2023/10/25 10:06:00;;;;;;;6.30;4.43;;;;;;;11.80;100.00;92513.94;5069506;28;20064;-62
2023/10/25 10:08:43;;;;;;;6.95;4.88;;;;;;;11.89;100.00;92511.22;5025155;28;20838;-62
2023/10/25 10:11:16;;;;;;;6.85;4.70;;;;;;;12.11;100.00;92504.78;5050779;28;20051;-62
2023/10/25 10:13:43;;;;;;;6.83;4.77;;;;;;;13.68;100.00;92493.16;5050456;28;20052;-62
2023/10/25 10:16:15;;;;;;;6.57;4.78;;;;;;;13.85;100.00;92499.03;5051088;28;20047;-62
2023/10/25 10:18:47;;;;;;;5.78;3.95;;;;;;;14.52;100.00;92488.47;5050726;28;20163;-62
2023/10/25 10:21:14;;;;;;;5.72;4.05;;;;;;;13.43;100.00;92500.69;5049480;28;20052;-62
2023/10/25 10:23:50;;;;;;;5.15;3.75;;;;;;;12.39;100.00;92498.03;5049221;28;20053;-61
2023/10/25 10:26:39;;;;;;;7.00;5.10;;;;;;;12.25;100.00;92493.13;5050510;28;20067;-62
2023/10/25 10:29:32;;;;;;;6.35;4.60;;;;;;;12.10;100.00;92501.28;5049521;28;21835;-62
2023/10/25 10:32:00;;;;;;;7.45;4.57;;;;;;;12.07;100.00;92485.69;5049496;28;21732;-62
2023/10/25 10:34:45;;;;;;;6.13;4.32;;;;;;;12.27;100.00;92487.94;5058556;28;20067;-61
2023/10/25 10:37:14;;;;;;;6.68;4.45;;;;;;;12.08;100.00;92484.47;5055654;28;20494;-61
2023/10/25 10:40:01;;;;;;;7.50;5.13;;;;;;;11.71;100.00;92487.22;5060126;28;20052;-62
2023/10/25 10:42:35;;;;;;;7.20;5.05;;;;;;;11.96;100.00;92474.41;5036360;28;20058;-61
2023/10/25 10:45:05;;;;;;;7.68;4.22;;;;;;;13.08;100.00;92468.09;5058599;28;20037;-62
2023/10/25 10:47:38;;;;;;;11.02;6.53;;;;;;;12.52;100.00;92475.81;5058947;28;20036;-62
2023/10/25 10:50:12;;;;;;;7.40;5.63;;;;;;;11.97;100.00;92454.69;5061848;28;20047;-62
2023/10/25 10:52:40;;;;;;;4.70;3.40;;;;;;;11.98;100.00;92466.44;5041094;28;20412;-62
2023/10/25 10:55:09;;;;;;;5.85;3.97;;;;;;;11.90;100.00;92460.50;5061527;28;20169;-62
2023/10/25 10:57:36;;;;;;;5.82;3.80;;;;;;;11.98;100.00;92452.72;5059723;28;20406;-62
2023/10/25 11:00:08;;;;;;;5.05;3.30;;;;;;;12.73;100.00;92435.53;5058393;28;20040;-62
2023/10/25 11:02:37;;;;;;;5.20;3.47;;;;;;;15.07;100.00;92427.09;5058801;28;20049;-62
2023/10/25 11:05:05;;;;;;;7.50;5.60;;;;;;;16.20;100.00;92427.69;5061540;28;20056;-63
2023/10/25 11:07:33;;;;;;;5.55;4.28;;;;;;;17.80;99.65;92418.00;5060044;28;20044;-63
2023/10/25 11:10:00;;;;;;;4.55;2.72;;;;;;;17.09;98.54;92413.09;5058216;28;20045;-62
2023/10/25 11:12:27;;;;;;;4.15;3.28;;;;;;;15.58;100.00;92409.16;5057906;28;20044;-62
2023/10/25 11:14:53;;;;;;;4.85;2.88;;;;;;;15.27;100.00;92400.72;5061875;28;20036;-63
2023/10/25 11:17:21;;;;;;;4.17;3.10;;;;;;;15.55;100.00;92396.31;5061220;28;20075;-63
2023/10/25 11:19:48;;;;;;;3.50;2.20;;;;;;;15.88;100.00;92384.13;5052962;28;20505;-63
2023/10/25 11:22:16;;;;;;;3.58;2.47;;;;;;;14.50;100.00;92384.03;5059414;28;20049;-63
2023/10/25 11:24:47;;;;;;;3.45;2.40;;;;;;;14.27;100.00;92385.69;5050313;28;20511;-62
2023/10/25 11:27:13;;;;;;;4.50;2.40;;;;;;;14.89;100.00;92375.63;5058051;28;20044;-62
2023/10/25 11:29:40;;;;;;;3.40;2.30;;;;;;;15.38;100.00;92354.63;5057251;28;20053;-63
2023/10/25 11:32:12;;;;;;;3.40;2.40;;;;;;;14.24;100.00;92356.28;5057694;28;20041;-62
2023/10/25 11:34:43;;;;;;;3.65;2.40;;;;;;;13.84;100.00;92359.63;5039555;28;20057;-62